VIV1375 MMQT-MMGL
Flight info
| Callsign | VIV1375 |
|---|---|
| Flight time | 0h 40m |
| Altitude | 34000 |
| Route | QET2A QET UT150 MUTEM MUTEM1B |
| Aircraft | A20N/M-SDE2E3FGHIJ1RWXY/L |
Departure
| Time | 2026-04-22 01:41 |
|---|---|
| Airport | Querétaro Intercontinental Airport (MMQT) |
Arrival
| Time | 2026-04-22 02:22 |
|---|---|
| Airport | Guadalajara International Airport (MMGL) |
| Time | Latitude | Longitude | Altitude | Speed | Heading |
|---|---|---|---|---|---|
| 2026-04-22 01:19 | 20.62200 | -100.18751 | 6305 ft | 0 kts | 41° |
| 2026-04-22 01:33 | 20.62190 | -100.18759 | 6305 ft | 2 kts | 38° |
| 2026-04-22 01:33 | 20.62177 | -100.18770 | 6305 ft | 2 kts | 36° |
| 2026-04-22 01:33 | 20.62163 | -100.18780 | 6308 ft | 2 kts | 30° |
| 2026-04-22 01:34 | 20.62148 | -100.18788 | 6307 ft | 2 kts | 21° |
| 2026-04-22 01:34 | 20.62133 | -100.18793 | 6307 ft | 2 kts | 359° |
| 2026-04-22 01:34 | 20.62117 | -100.18788 | 6306 ft | 2 kts | 313° |
| 2026-04-22 01:34 | 20.62110 | -100.18777 | 6305 ft | 1 kts | 288° |
| 2026-04-22 01:35 | 20.62109 | -100.18776 | 6305 ft | 0 kts | 286° |
| 2026-04-22 01:35 | 20.62110 | -100.18776 | 6305 ft | 0 kts | 286° |
| 2026-04-22 01:36 | 20.62111 | -100.18782 | 6305 ft | 4 kts | 282° |
| 2026-04-22 01:37 | 20.62123 | -100.18862 | 6305 ft | 19 kts | 282° |
| 2026-04-22 01:37 | 20.62153 | -100.19017 | 6305 ft | 23 kts | 278° |
| 2026-04-22 01:37 | 20.62184 | -100.19189 | 6305 ft | 23 kts | 281° |
| 2026-04-22 01:37 | 20.62144 | -100.19294 | 6305 ft | 16 kts | 196° |
| 2026-04-22 01:38 | 20.62053 | -100.19351 | 6305 ft | 16 kts | 263° |
| 2026-04-22 01:38 | 20.62072 | -100.19479 | 6307 ft | 20 kts | 281° |
| 2026-04-22 01:38 | 20.62103 | -100.19644 | 6306 ft | 25 kts | 281° |
| 2026-04-22 01:38 | 20.62139 | -100.19834 | 6306 ft | 27 kts | 281° |
| 2026-04-22 01:39 | 20.62172 | -100.20027 | 6306 ft | 25 kts | 280° |
| 2026-04-22 01:39 | 20.62170 | -100.20163 | 6305 ft | 6 kts | 216° |
| 2026-04-22 01:39 | 20.62149 | -100.20173 | 6306 ft | 10 kts | 200° |
| 2026-04-22 01:39 | 20.62128 | -100.20179 | 6306 ft | 0 kts | 193° |
| 2026-04-22 01:40 | 20.62127 | -100.20179 | 6306 ft | 0 kts | 193° |
| 2026-04-22 01:40 | 20.62088 | -100.20187 | 6306 ft | 14 kts | 187° |
| 2026-04-22 01:40 | 20.62014 | -100.20054 | 6308 ft | 42 kts | 100° |
| 2026-04-22 01:40 | 20.61897 | -100.19415 | 6304 ft | 129 kts | 101° |
| 2026-04-22 01:41 | 20.61676 | -100.18237 | 6375 ft | 188 kts | 102° |
| 2026-04-22 01:41 | 20.61395 | -100.16723 | 6807 ft | 229 kts | 102° |
| 2026-04-22 01:41 | 20.61035 | -100.14912 | 7494 ft | 267 kts | 104° |
| 2026-04-22 01:41 | 20.60721 | -100.12872 | 7837 ft | 289 kts | 97° |
| 2026-04-22 01:42 | 20.60542 | -100.10712 | 8686 ft | 289 kts | 94° |
| 2026-04-22 01:42 | 20.60341 | -100.08594 | 9798 ft | 287 kts | 95° |
| 2026-04-22 01:42 | 20.60099 | -100.06445 | 10499 ft | 297 kts | 96° |
| 2026-04-22 01:42 | 20.59816 | -100.04242 | 11272 ft | 302 kts | 97° |
| 2026-04-22 01:43 | 20.59496 | -100.02006 | 12023 ft | 309 kts | 102° |
| 2026-04-22 01:43 | 20.58620 | -99.99975 | 13064 ft | 301 kts | 128° |
| 2026-04-22 01:43 | 20.57075 | -99.98587 | 14334 ft | 283 kts | 155° |
| 2026-04-22 01:43 | 20.55252 | -99.98090 | 15467 ft | 264 kts | 182° |
| 2026-04-22 01:44 | 20.53484 | -99.98485 | 16226 ft | 261 kts | 210° |
| 2026-04-22 01:44 | 20.52098 | -99.99707 | 16843 ft | 263 kts | 237° |
| 2026-04-22 01:44 | 20.51360 | -100.01537 | 17103 ft | 281 kts | 263° |
| 2026-04-22 01:44 | 20.51486 | -100.03674 | 17329 ft | 301 kts | 289° |
| 2026-04-22 01:45 | 20.52528 | -100.05679 | 17551 ft | 322 kts | 312° |
| 2026-04-22 01:45 | 20.54190 | -100.07399 | 17780 ft | 344 kts | 317° |
| 2026-04-22 01:45 | 20.55906 | -100.09276 | 18036 ft | 362 kts | 311° |
| 2026-04-22 01:45 | 20.57465 | -100.11439 | 18566 ft | 371 kts | 305° |
| 2026-04-22 01:46 | 20.58860 | -100.13764 | 19186 ft | 374 kts | 301° |
| 2026-04-22 01:46 | 20.60167 | -100.16172 | 19827 ft | 376 kts | 300° |
| 2026-04-22 01:46 | 20.61429 | -100.18625 | 20478 ft | 378 kts | 296° |
| 2026-04-22 01:46 | 20.62442 | -100.21218 | 21146 ft | 379 kts | 290° |
| 2026-04-22 01:47 | 20.63258 | -100.23894 | 21862 ft | 379 kts | 287° |
| 2026-04-22 01:47 | 20.64016 | -100.26580 | 22615 ft | 378 kts | 287° |
| 2026-04-22 01:47 | 20.64772 | -100.29259 | 23363 ft | 376 kts | 287° |
| 2026-04-22 01:47 | 20.65539 | -100.31920 | 24060 ft | 374 kts | 287° |
| 2026-04-22 01:48 | 20.66315 | -100.34567 | 24686 ft | 372 kts | 287° |
| 2026-04-22 01:48 | 20.67091 | -100.37190 | 25321 ft | 369 kts | 288° |
| 2026-04-22 01:48 | 20.67864 | -100.39791 | 25973 ft | 366 kts | 288° |
| 2026-04-22 01:48 | 20.68621 | -100.42336 | 26637 ft | 362 kts | 288° |
| 2026-04-22 01:49 | 20.69378 | -100.44883 | 27323 ft | 358 kts | 287° |
| 2026-04-22 01:49 | 20.70124 | -100.47395 | 28025 ft | 352 kts | 287° |
| 2026-04-22 01:49 | 20.70858 | -100.49869 | 28754 ft | 346 kts | 287° |
| 2026-04-22 01:49 | 20.71579 | -100.52298 | 29506 ft | 339 kts | 287° |
| 2026-04-22 01:50 | 20.72282 | -100.54671 | 30234 ft | 331 kts | 287° |
| 2026-04-22 01:50 | 20.72968 | -100.56984 | 30909 ft | 322 kts | 287° |
| 2026-04-22 01:50 | 20.73635 | -100.59231 | 31618 ft | 311 kts | 287° |
| 2026-04-22 01:50 | 20.74286 | -100.61426 | 32059 ft | 310 kts | 287° |
| 2026-04-22 01:51 | 20.74940 | -100.63635 | 32323 ft | 314 kts | 286° |
| 2026-04-22 01:51 | 20.75601 | -100.65868 | 32614 ft | 316 kts | 286° |
| 2026-04-22 01:51 | 20.76265 | -100.68112 | 32911 ft | 318 kts | 286° |
| 2026-04-22 01:51 | 20.76935 | -100.70375 | 33190 ft | 320 kts | 286° |
| 2026-04-22 01:52 | 20.77598 | -100.72619 | 33472 ft | 322 kts | 286° |
| 2026-04-22 01:52 | 20.78275 | -100.74908 | 33748 ft | 324 kts | 286° |
| 2026-04-22 01:52 | 20.78958 | -100.77222 | 33903 ft | 331 kts | 285° |
| 2026-04-22 01:52 | 20.79661 | -100.79604 | 33910 ft | 341 kts | 285° |
| 2026-04-22 01:53 | 20.81130 | -100.84588 | 33913 ft | 362 kts | 285° |
| 2026-04-22 01:53 | 20.82686 | -100.89864 | 33912 ft | 383 kts | 286° |
| 2026-04-22 01:54 | 20.84329 | -100.95442 | 33917 ft | 404 kts | 286° |
| 2026-04-22 01:54 | 20.86047 | -101.01310 | 33915 ft | 423 kts | 285° |
| 2026-04-22 01:55 | 20.87828 | -101.07455 | 33918 ft | 442 kts | 286° |
| 2026-04-22 01:55 | 20.89685 | -101.13778 | 33952 ft | 445 kts | 286° |
| 2026-04-22 01:56 | 20.91530 | -101.20058 | 34036 ft | 445 kts | 286° |
| 2026-04-22 01:56 | 20.93382 | -101.26384 | 34120 ft | 445 kts | 286° |
| 2026-04-22 01:57 | 20.95231 | -101.32708 | 34204 ft | 445 kts | 286° |
| 2026-04-22 01:57 | 20.97075 | -101.39032 | 34285 ft | 445 kts | 286° |
| 2026-04-22 01:58 | 20.98749 | -101.45400 | 34283 ft | 442 kts | 278° |
| 2026-04-22 01:58 | 20.98995 | -101.48638 | 34288 ft | 430 kts | 269° |
| 2026-04-22 01:58 | 20.98757 | -101.51794 | 34286 ft | 425 kts | 261° |
| 2026-04-22 01:59 | 20.97284 | -101.57958 | 34280 ft | 429 kts | 255° |
| 2026-04-22 01:59 | 20.95730 | -101.64071 | 34152 ft | 427 kts | 256° |
| 2026-04-22 02:00 | 20.94954 | -101.67124 | 33722 ft | 424 kts | 256° |
| 2026-04-22 02:00 | 20.94179 | -101.70165 | 33003 ft | 424 kts | 256° |
| 2026-04-22 02:00 | 20.93400 | -101.73219 | 32145 ft | 426 kts | 256° |
| 2026-04-22 02:00 | 20.92615 | -101.76291 | 31254 ft | 428 kts | 256° |
| 2026-04-22 02:01 | 20.91826 | -101.79370 | 30369 ft | 430 kts | 256° |
| 2026-04-22 02:01 | 20.91036 | -101.82455 | 29595 ft | 428 kts | 257° |
| 2026-04-22 02:01 | 20.90252 | -101.85517 | 28893 ft | 424 kts | 256° |
| 2026-04-22 02:01 | 20.89477 | -101.88540 | 28338 ft | 419 kts | 256° |
| 2026-04-22 02:02 | 20.88707 | -101.91546 | 27754 ft | 419 kts | 256° |
| 2026-04-22 02:02 | 20.87939 | -101.94546 | 27188 ft | 418 kts | 256° |
| 2026-04-22 02:02 | 20.87175 | -101.97535 | 26631 ft | 415 kts | 256° |
| 2026-04-22 02:02 | 20.86418 | -102.00493 | 26083 ft | 411 kts | 256° |
| 2026-04-22 02:03 | 20.85672 | -102.03408 | 25553 ft | 409 kts | 256° |
| 2026-04-22 02:03 | 20.84923 | -102.06329 | 25031 ft | 407 kts | 256° |
| 2026-04-22 02:03 | 20.84177 | -102.09239 | 24480 ft | 405 kts | 256° |
| 2026-04-22 02:03 | 20.83433 | -102.12139 | 23928 ft | 403 kts | 256° |
| 2026-04-22 02:04 | 20.81960 | -102.17877 | 22714 ft | 399 kts | 256° |
| 2026-04-22 02:04 | 20.81227 | -102.20727 | 22082 ft | 396 kts | 256° |
| 2026-04-22 02:04 | 20.80499 | -102.23554 | 21474 ft | 393 kts | 256° |
| 2026-04-22 02:05 | 20.79694 | -102.26337 | 20888 ft | 392 kts | 250° |
| 2026-04-22 02:05 | 20.78554 | -102.28978 | 20333 ft | 392 kts | 242° |
| 2026-04-22 02:05 | 20.77085 | -102.31424 | 19771 ft | 390 kts | 234° |
| 2026-04-22 02:05 | 20.75519 | -102.33574 | 19253 ft | 387 kts | 233° |
| 2026-04-22 02:06 | 20.73873 | -102.35840 | 18711 ft | 384 kts | 233° |
| 2026-04-22 02:06 | 20.72245 | -102.38091 | 18143 ft | 382 kts | 233° |
| 2026-04-22 02:06 | 20.70627 | -102.40331 | 17506 ft | 380 kts | 234° |
| 2026-04-22 02:06 | 20.69020 | -102.42556 | 16863 ft | 376 kts | 234° |
| 2026-04-22 02:07 | 20.67440 | -102.44737 | 16225 ft | 366 kts | 233° |
| 2026-04-22 02:07 | 20.65902 | -102.46862 | 15609 ft | 357 kts | 233° |
| 2026-04-22 02:07 | 20.64428 | -102.48941 | 15233 ft | 342 kts | 238° |
| 2026-04-22 02:07 | 20.63328 | -102.51098 | 15021 ft | 322 kts | 244° |
| 2026-04-22 02:08 | 20.62321 | -102.53178 | 14722 ft | 309 kts | 244° |
| 2026-04-22 02:08 | 20.61348 | -102.55202 | 14430 ft | 304 kts | 244° |
| 2026-04-22 02:08 | 20.60405 | -102.57198 | 14154 ft | 299 kts | 244° |
| 2026-04-22 02:08 | 20.59489 | -102.59166 | 13883 ft | 294 kts | 244° |
| 2026-04-22 02:09 | 20.58592 | -102.61106 | 13589 ft | 289 kts | 244° |
| 2026-04-22 02:09 | 20.57711 | -102.63016 | 13283 ft | 285 kts | 245° |
| 2026-04-22 02:09 | 20.56842 | -102.64901 | 12976 ft | 281 kts | 245° |
| 2026-04-22 02:09 | 20.55983 | -102.66764 | 12677 ft | 282 kts | 245° |
| 2026-04-22 02:10 | 20.55095 | -102.68692 | 12384 ft | 294 kts | 245° |
| 2026-04-22 02:10 | 20.54497 | -102.69989 | 12193 ft | 293 kts | 245° |
| 2026-04-22 02:10 | 20.53601 | -102.71926 | 11894 ft | 289 kts | 245° |
| 2026-04-22 02:10 | 20.52436 | -102.74447 | 11542 ft | 282 kts | 245° |
| 2026-04-22 02:11 | 20.51574 | -102.76313 | 11283 ft | 280 kts | 245° |
| 2026-04-22 02:11 | 20.50708 | -102.78187 | 11032 ft | 284 kts | 245° |
| 2026-04-22 02:11 | 20.50129 | -102.79440 | 10856 ft | 284 kts | 245° |
| 2026-04-22 02:11 | 20.49261 | -102.81315 | 10595 ft | 279 kts | 246° |
| 2026-04-22 02:12 | 20.48409 | -102.83155 | 10345 ft | 273 kts | 245° |
| 2026-04-22 02:12 | 20.47580 | -102.84944 | 10077 ft | 264 kts | 246° |
| 2026-04-22 02:12 | 20.46784 | -102.86659 | 9811 ft | 253 kts | 246° |
| 2026-04-22 02:12 | 20.46020 | -102.88309 | 9520 ft | 243 kts | 246° |
| 2026-04-22 02:13 | 20.45282 | -102.89899 | 9212 ft | 235 kts | 246° |
| 2026-04-22 02:13 | 20.44570 | -102.91437 | 8913 ft | 229 kts | 246° |
| 2026-04-22 02:13 | 20.43863 | -102.92967 | 8812 ft | 231 kts | 246° |
| 2026-04-22 02:13 | 20.43164 | -102.94475 | 8800 ft | 223 kts | 246° |
| 2026-04-22 02:14 | 20.42489 | -102.95932 | 8809 ft | 215 kts | 246° |
| 2026-04-22 02:14 | 20.41836 | -102.97337 | 8818 ft | 208 kts | 246° |
| 2026-04-22 02:14 | 20.41199 | -102.98712 | 8835 ft | 208 kts | 246° |
| 2026-04-22 02:14 | 20.40574 | -103.00089 | 8847 ft | 209 kts | 250° |
| 2026-04-22 02:15 | 20.40295 | -103.01529 | 8862 ft | 193 kts | 271° |
| 2026-04-22 02:15 | 20.40504 | -103.02925 | 8870 ft | 192 kts | 286° |
| 2026-04-22 02:15 | 20.40964 | -103.04265 | 8882 ft | 194 kts | 292° |
| 2026-04-22 02:15 | 20.41517 | -103.05587 | 8881 ft | 195 kts | 294° |
| 2026-04-22 02:16 | 20.42062 | -103.06885 | 8839 ft | 188 kts | 292° |
| 2026-04-22 02:16 | 20.42589 | -103.08147 | 8731 ft | 186 kts | 292° |
| 2026-04-22 02:16 | 20.43106 | -103.09386 | 8522 ft | 177 kts | 292° |
| 2026-04-22 02:16 | 20.43591 | -103.10545 | 8323 ft | 167 kts | 293° |
| 2026-04-22 02:17 | 20.44061 | -103.11670 | 8138 ft | 165 kts | 292° |
| 2026-04-22 02:17 | 20.44528 | -103.12784 | 7954 ft | 164 kts | 292° |
| 2026-04-22 02:17 | 20.44986 | -103.13881 | 7802 ft | 160 kts | 292° |
| 2026-04-22 02:17 | 20.45432 | -103.14947 | 7618 ft | 157 kts | 292° |
| 2026-04-22 02:18 | 20.45877 | -103.16013 | 7433 ft | 158 kts | 292° |
| 2026-04-22 02:18 | 20.46325 | -103.17082 | 7272 ft | 157 kts | 292° |
| 2026-04-22 02:18 | 20.46755 | -103.18110 | 7097 ft | 146 kts | 291° |
| 2026-04-22 02:18 | 20.47163 | -103.19087 | 6946 ft | 144 kts | 291° |
| 2026-04-22 02:19 | 20.47570 | -103.20062 | 6787 ft | 143 kts | 291° |
| 2026-04-22 02:19 | 20.47979 | -103.21041 | 6634 ft | 144 kts | 292° |
| 2026-04-22 02:19 | 20.48391 | -103.22027 | 6468 ft | 146 kts | 292° |
| 2026-04-22 02:19 | 20.48801 | -103.23006 | 6322 ft | 143 kts | 292° |
| 2026-04-22 02:20 | 20.49206 | -103.23977 | 6176 ft | 143 kts | 292° |
| 2026-04-22 02:20 | 20.49611 | -103.24946 | 6015 ft | 142 kts | 292° |
| 2026-04-22 02:20 | 20.50010 | -103.25901 | 5818 ft | 140 kts | 291° |
| 2026-04-22 02:20 | 20.50407 | -103.26852 | 5617 ft | 141 kts | 290° |
| 2026-04-22 02:21 | 20.50805 | -103.27801 | 5382 ft | 139 kts | 289° |
| 2026-04-22 02:21 | 20.51184 | -103.28748 | 5190 ft | 137 kts | 292° |
| 2026-04-22 02:21 | 20.51588 | -103.29695 | 5038 ft | 140 kts | 292° |
| 2026-04-22 02:21 | 20.51875 | -103.30381 | 5028 ft | 61 kts | 292° |
| 2026-04-22 02:22 | 20.51967 | -103.30598 | 5028 ft | 25 kts | 296° |
| 2026-04-22 02:22 | 20.52061 | -103.30763 | 5029 ft | 27 kts | 310° |
| 2026-04-22 02:22 | 20.52184 | -103.30868 | 5029 ft | 11 kts | 324° |
| 2026-04-22 02:22 | 20.52187 | -103.30871 | 5029 ft | 0 kts | 324° |
| 2026-04-22 02:23 | 20.52188 | -103.30871 | 5029 ft | 1 kts | 324° |
| 2026-04-22 02:23 | 20.52221 | -103.30896 | 5029 ft | 13 kts | 324° |
| 2026-04-22 02:23 | 20.52303 | -103.30960 | 5030 ft | 14 kts | 324° |
| 2026-04-22 02:24 | 20.52366 | -103.30995 | 5029 ft | 7 kts | 10° |
| 2026-04-22 02:24 | 20.52438 | -103.30956 | 5030 ft | 17 kts | 31° |
| 2026-04-22 02:24 | 20.52473 | -103.30934 | 5029 ft | 0 kts | 31° |
| 2026-04-22 02:25 | 20.52475 | -103.30932 | 5029 ft | 3 kts | 31° |
| 2026-04-22 02:25 | 20.52514 | -103.30865 | 5029 ft | 20 kts | 104° |
| 2026-04-22 02:25 | 20.52499 | -103.30734 | 5025 ft | 19 kts | 71° |
| 2026-04-22 02:25 | 20.52542 | -103.30597 | 5029 ft | 13 kts | 94° |
| 2026-04-22 02:26 | 20.52482 | -103.30549 | 5029 ft | 14 kts | 154° |
| 2026-04-22 02:26 | 20.52421 | -103.30445 | 5027 ft | 17 kts | 92° |
| 2026-04-22 02:26 | 20.52449 | -103.30357 | 5029 ft | 12 kts | 101° |
| 2026-04-22 02:26 | 20.52417 | -103.30256 | 5028 ft | 16 kts | 107° |
| 2026-04-22 02:27 | 20.52383 | -103.30128 | 5029 ft | 19 kts | 109° |
| 2026-04-22 02:27 | 20.52338 | -103.29991 | 5029 ft | 19 kts | 109° |
| 2026-04-22 02:27 | 20.52317 | -103.29883 | 5029 ft | 10 kts | 53° |
| 2026-04-22 02:27 | 20.52359 | -103.29862 | 5029 ft | 4 kts | 19° |
| 2026-04-22 02:28 | 20.52363 | -103.29861 | 5029 ft | 0 kts | 19° |